Latest Weather Observations for Newcastle Nobbys

IDN60901

Issued at 7:31 pm EDT Wednesday 25 November 2020 (issued every 10 minutes, with the page automatically refreshed every 10 minutes)

About weather observations | Map of Sydney area stations | Latest observations for Sydney area | Other Formats
Station Details ID: 061055 Name: NEWCASTLE NOBBYS SIGNAL STATION AWS Lat: -32.92 Lon: 151.80 Height: 33.0 m
Data from the previous 72 hours. | See also: Recent months at Newcastle Nobbys
Date/Time
EDT
Temp
°C
App
Temp
°C
Dew
Point
°C
Rel
Hum
%
Delta-T
°C
Wind Press
QNH
hPa
Press
MSL
hPa
Rain since
9am
mm
Dir  Spd
km/h
Gust
km/h
Spd
kts
Gust
kts
25/07:30pm 20.0 17.8 16.0 78 2.4 ENE 22 32 12 17 - - 0.0
25/07:00pm 20.1 17.4 15.5 75 2.7 ENE 24 30 13 16 - - 0.0
25/06:30pm 20.6 18.2 15.4 72 3.1 ENE 22 28 12 15 - - 0.0
25/06:00pm 20.8 18.7 15.1 70 3.4 ENE 20 26 11 14 - - 0.0
25/05:30pm 20.9 18.8 15.2 70 3.4 E 20 24 11 13 - - 0.0
25/05:00pm 20.7 18.6 15.3 71 3.2 E 20 24 11 13 - - 0.0
25/04:30pm 20.9 18.5 15.4 71 3.3 E 22 26 12 14 - - 0.0
25/04:00pm 20.8 18.2 14.9 69 3.5 ESE 22 24 12 13 - - 0.0
25/03:30pm 21.0 18.3 14.6 67 3.8 ESE 22 26 12 14 - - 0.0
25/03:00pm 21.4 18.8 15.0 67 3.8 ESE 22 26 12 14 - - 0.0
25/02:30pm 21.5 19.2 15.8 70 3.4 ESE 22 26 12 14 - - 0.0
25/02:00pm 21.7 19.4 15.8 69 3.5 ESE 22 26 12 14 - - 0.0
25/01:30pm 21.8 20.0 16.1 70 3.4 ESE 20 24 11 13 - - 0.0
25/01:00pm 21.4 19.7 15.7 70 3.4 ESE 19 20 10 11 - - 0.0
25/12:30pm 21.6 20.3 15.7 69 3.5 ESE 17 19 9 10 - - 0.0
25/12:00pm 21.7 20.5 16.0 70 3.4 ESE 17 19 9 10 - - 0.0
25/11:30am 22.4 22.5 16.4 69 3.6 ESE 11 13 6 7 - - 0.0
25/11:00am 23.0 23.8 16.3 66 4.1 E 7 9 4 5 - - 0.0
25/10:30am 23.6 24.7 17.1 67 4.0 E 7 13 4 7 - - 0.0
25/10:00am 22.9 25.1 17.4 71 3.4 NNE 2 7 1 4 - - 0.0
25/09:30am 22.0 23.1 16.5 71 3.3 NNE 6 7 3 4 - - 0.0
25/09:00am 21.6 23.7 16.3 72 3.2 CALM 0 0 0 0 - - 0.0
25/08:30am 21.1 23.5 17.1 78 2.4 CALM 0 0 0 0 - - 0.0
25/08:00am 20.3 22.6 16.7 80 2.2 CALM 0 0 0 0 - - 0.0
25/07:30am 19.6 21.2 15.9 79 2.2 ESE 2 6 1 3 - - 0.0
25/07:00am 20.6 20.9 16.0 75 2.8 ESE 9 11 5 6 - - 0.0
25/06:30am 19.9 20.3 16.2 79 2.2 ESE 9 11 5 6 - - 0.0
25/06:00am 19.1 19.3 15.8 81 2.0 ESE 9 11 5 6 - - 0.0
25/05:30am 19.1 18.7 15.2 78 2.3 ESE 11 13 6 7 - - 0.0
25/05:00am 19.1 18.8 15.4 79 2.2 ESE 11 13 6 7 - - 0.0
25/04:30am 19.2 18.9 15.5 79 2.2 ESE 11 13 6 7 - - 0.0
25/04:00am 19.3 18.7 15.6 79 2.2 ESE 13 15 7 8 - - 0.0
25/03:30am 19.3 18.5 16.0 81 2.0 SE 15 17 8 9 - - 0.0
25/03:00am 19.3 18.5 16.2 82 1.9 SE 15 19 8 10 - - 0.0
25/02:30am 19.3 18.9 16.2 82 1.9 SE 13 17 7 9 - - 0.0
25/02:00am 19.2 19.2 16.2 83 1.8 ESE 11 13 6 7 - - 0.0
25/01:30am 19.0 20.1 17.0 88 1.2 ESE 7 9 4 5 - - 0.0
25/01:00am 19.1 18.9 16.7 86 1.4 ESE 13 15 7 8 - - 0.0
25/12:30am 18.7 17.6 17.2 91 0.9 ESE 19 22 10 12 - - 0.0
25/12:00am 19.3 18.9 18.1 93 0.7 S 17 20 9 11 - - 0.0
 
Date/Time
EDT
Temp
°C
App
Temp
°C
Dew
Point
°C
Rel
Hum
%
Delta-T
°C
Wind Press
QNH
hPa
Press
MSL
hPa
Rain since
9am
mm
Dir  Spd
km/h
Gust
km/h
Spd
kts
Gust
kts
24/11:30pm 19.2 19.5 17.9 92 0.8 SSW 13 19 7 10 - - 0.0
24/11:00pm 19.3 19.2 17.8 91 0.9 S 15 19 8 10 - - 0.0
24/10:30pm 19.3 19.4 17.4 89 1.2 S 13 17 7 9 - - 0.0
24/10:00pm 19.3 19.0 17.4 89 1.2 S 15 17 8 9 - - 0.0
24/09:30pm 19.4 19.1 17.4 88 1.2 S 15 17 8 9 - - 0.0
24/09:00pm 19.2 18.8 17.2 88 1.2 SSE 15 19 8 10 - - 0.0
24/08:30pm 19.2 18.7 16.8 86 1.4 SSE 15 19 8 10 - - 0.0
24/08:00pm 19.3 18.5 17.1 87 1.3 SSE 17 20 9 11 - - 0.0
24/07:30pm 19.3 17.6 17.1 87 1.3 SSE 22 26 12 14 - - 0.0
24/07:00pm 19.4 17.0 16.4 83 1.8 SSE 24 28 13 15 - - 0.0
24/06:30pm 19.6 16.9 16.6 83 1.8 SSE 26 33 14 18 - - 0.0
24/06:00pm 19.9 16.9 16.7 82 1.9 S 28 32 15 17 - - 0.0
24/05:30pm 20.3 17.3 16.7 80 2.2 SSE 28 33 15 18 - - 0.0
24/05:00pm 20.1 16.6 16.5 80 2.2 S 30 35 16 19 - - 0.0
24/04:30pm 19.9 15.7 15.7 77 2.5 S 32 35 17 19 - - 0.0
24/04:00pm 20.2 16.0 15.8 76 2.6 S 32 37 17 20 - - 0.0
24/03:30pm 20.4 16.8 16.2 77 2.5 SSE 30 35 16 19 - - 0.0
24/03:00pm 20.3 15.9 15.7 75 2.7 S 33 39 18 21 - - 0.0
24/02:30pm 20.5 16.3 15.7 74 2.9 S 32 37 17 20 - - 0.0
24/02:00pm 20.9 17.2 16.1 74 2.9 S 30 35 16 19 - - 0.0
24/01:30pm 20.7 17.8 15.0 70 3.4 S 24 28 13 15 - - 0.0
24/01:00pm 20.7 17.4 15.0 70 3.4 S 26 30 14 16 - - 0.0
24/12:30pm 20.3 16.1 14.7 70 3.3 S 30 35 16 19 - - 0.0
24/12:00pm 20.5 16.1 15.1 71 3.2 S 32 37 17 20 - - 0.0
24/11:30am 20.4 15.6 14.7 70 3.3 S 33 41 18 22 - - 0.0
24/11:00am 20.6 16.7 15.4 72 3.1 S 30 35 16 19 - - 0.0
24/10:30am 20.4 16.4 15.2 72 3.1 S 30 33 16 18 - - 0.0
24/10:00am 20.4 16.4 15.2 72 3.1 S 30 35 16 19 - - 0.0
24/09:30am 20.3 16.0 15.3 73 3.0 S 32 39 17 21 - - 0.0
24/09:00am 20.2 16.0 15.6 75 2.7 S 32 37 17 20 - - 0.0
24/08:30am 20.2 17.4 16.4 79 2.3 S 26 33 14 18 - - 0.0
24/08:00am 20.3 18.2 17.1 82 2.0 S 24 30 13 16 - - 0.0
24/07:30am 19.5 16.3 16.3 82 1.9 S 28 33 15 18 - - 0.0
24/07:00am 19.5 15.7 16.7 84 1.7 S 32 37 17 20 - - 0.0
24/06:30am 19.4 15.1 16.8 85 1.6 S 35 44 19 24 - - 0.0
24/06:08am 19.4 17.1 17.5 89 1.2 S 26 43 14 23 - - 0.0
24/06:00am 19.3 19.3 18.1 93 0.7 SSW 15 24 8 13 - - 0.0
24/05:30am 18.9 20.5 18.2 96 0.4 SW 7 11 4 6 - - 0.0
24/05:00am 18.7 20.1 17.9 95 0.5 SW 7 13 4 7 - - 0.0
24/04:30am 19.0 19.7 18.0 94 0.6 SW 11 17 6 9 - - 0.0
24/04:00am 19.0 20.2 18.2 95 0.5 SSW 9 20 5 11 - - 0.0
24/03:30am 19.0 20.0 17.8 93 0.7 SSW 9 13 5 7 - - 0.0
24/03:00am 19.1 20.4 17.6 91 0.9 SW 7 15 4 8 - - 0.0
24/02:30am 19.3 20.6 17.6 90 1.0 SW 7 13 4 7 - - 0.0
24/02:00am 19.3 20.4 18.0 92 0.8 SW 9 15 5 8 - - 0.0
24/01:30am 19.4 20.2 18.2 93 0.7 SW 11 20 6 11 - - 0.0
24/01:00am 19.5 19.0 18.7 95 0.5 SSW 19 28 10 15 - - 0.0
24/12:30am 19.5 19.4 18.7 95 0.5 SSW 17 24 9 13 - - 0.0
24/12:00am 20.0 19.8 18.5 91 0.9 SSW 17 30 9 16 - - 0.0
 
Date/Time
EDT
Temp
°C
App
Temp
°C
Dew
Point
°C
Rel
Hum
%
Delta-T
°C
Wind Press
QNH
hPa
Press
MSL
hPa
Rain since
9am
mm
Dir  Spd
km/h
Gust
km/h
Spd
kts
Gust
kts
23/11:30pm 20.2 19.3 18.1 88 1.3 S 20 24 11 13 - - 0.0
23/11:00pm 20.4 20.6 17.6 84 1.7 S 13 15 7 8 - - 0.0
23/10:30pm 20.9 19.7 17.1 79 2.3 S 19 24 10 13 - - 0.0
23/10:00pm 22.5 20.7 17.0 71 3.4 SW 22 32 12 17 - - 0.0
23/09:30pm 22.4 19.1 17.1 72 3.3 NW 30 37 16 20 - - 0.0
23/09:00pm 22.3 19.0 17.0 72 3.3 NW 30 39 16 21 - - 0.0
23/08:30pm 22.4 19.4 16.9 71 3.4 NW 28 35 15 19 - - 0.0
23/08:00pm 22.7 20.0 16.7 69 3.7 NW 26 33 14 18 - - 0.0
23/07:30pm 23.2 20.8 16.5 66 4.1 WNW 24 35 13 19 - - 0.0
23/07:00pm 23.7 19.6 16.5 64 4.4 NNW 33 43 18 23 - - 0.0
23/06:30pm 24.2 21.1 15.7 59 5.1 NW 26 32 14 17 - - 0.0
23/06:00pm 25.2 21.7 14.6 51 6.3 NW 26 33 14 18 - - 0.0
23/05:30pm 25.2 21.7 14.6 51 6.3 WNW 26 33 14 18 - - 0.0
23/05:00pm 24.9 21.4 14.4 52 6.2 WNW 26 35 14 19 - - 0.0
23/04:30pm 25.1 21.3 14.6 52 6.3 WNW 28 39 15 21 - - 0.0
23/04:04pm 25.7 21.2 13.9 48 7.0 NW 30 50 16 27 - - 0.0
23/04:00pm 25.7 22.4 13.9 48 7.0 NW 24 43 13 23 - - 0.0
23/03:30pm 25.4 21.5 15.4 54 6.1 NW 30 39 16 21 - - 0.0
23/03:00pm 25.9 21.2 15.9 54 6.1 WNW 35 48 19 26 - - 0.0
23/02:30pm 26.4 22.5 16.9 56 5.9 W 33 43 18 23 - - 0.0
23/02:00pm 27.1 23.9 18.1 58 5.7 W 32 54 17 29 - - 0.0
23/01:58pm 27.1 24.8 18.4 59 5.5 W 28 52 15 28 - - 0.0
23/01:30pm 26.0 28.3 20.6 72 3.5 WSW 9 32 5 17 - - 0.0
23/01:00pm 22.1 25.2 20.2 89 1.2 ESE 4 9 2 5 - - 0.0
23/12:30pm 23.1 25.4 20.6 86 1.6 E 9 13 5 7 - - 0.0
23/12:00pm 22.8 26.3 20.3 86 1.6 NE 2 4 1 2 - - 0.0
23/11:30am 22.4 24.2 20.3 88 1.4 NE 11 19 6 10 - - 0.0
23/11:00am 22.5 24.5 20.8 90 1.1 NE 11 17 6 9 - - 0.0
23/10:30am 22.3 25.1 21.6 96 0.5 NE 9 13 5 7 - - 0.0
23/10:00am 21.5 23.9 20.8 96 0.5 ENE 9 13 5 7 - - 0.0
23/09:30am 21.5 24.4 20.7 95 0.5 E 6 9 3 5 - - 0.0
23/09:00am 21.5 25.4 20.3 93 0.8 CALM 0 0 0 0 - - 0.2
23/08:30am 21.6 23.9 19.9 90 1.1 S 7 9 4 5 - - 0.2
23/08:00am 21.9 24.8 19.8 88 1.3 S 4 7 2 4 - - 0.2
23/07:30am 21.8 23.8 19.2 85 1.6 S 7 15 4 8 - - 0.2
23/07:00am 22.2 24.5 18.6 80 2.3 SW 4 11 2 6 - - 0.2
23/06:30am 23.7 26.5 18.8 74 3.1 WSW 2 7 1 4 - - 0.2
23/06:00am 23.3 26.9 19.7 80 2.3 CALM 0 0 0 0 - - 0.2
23/05:30am 23.2 25.1 19.8 81 2.2 WSW 9 13 5 7 - - 0.2
23/05:00am 22.4 22.9 20.1 87 1.5 NW 17 24 9 13 - - 0.2
23/04:30am 22.9 22.9 20.2 85 1.7 NW 20 28 11 15 - - 0.2
23/04:00am 22.4 23.5 20.5 89 1.2 NNW 15 19 8 10 - - 0.2
23/03:30am 21.4 22.6 20.0 92 0.9 NW 13 17 7 9 - - 0.2
23/03:00am 22.0 22.3 20.5 91 1.0 NW 19 24 10 13 - - 0.2
23/02:30am 21.9 25.3 20.9 94 0.7 NE 4 6 2 3 - - 0.2
23/02:00am 22.8 26.2 20.9 89 1.2 NE 4 6 2 3 - - 0.2
23/01:30am 23.0 26.8 20.9 88 1.4 NE 2 4 1 2 - - 0.2
23/01:00am 23.3 27.6 21.2 88 1.4 CALM 0 0 0 0 - - 0.2
23/12:30am 23.0 27.3 21.1 89 1.2 CALM 0 0 0 0 - - 0.2
23/12:00am 22.5 26.9 21.3 93 0.8 CALM 0 0 0 0 - - 0.2
 
Date/Time
EDT
Temp
°C
App
Temp
°C
Dew
Point
°C
Rel
Hum
%
Delta-T
°C
Wind Press
QNH
hPa
Press
MSL
hPa
Rain since
9am
mm
Dir  Spd
km/h
Gust
km/h
Spd
kts
Gust
kts
22/11:30pm 22.8 27.1 21.1 90 1.1 CALM 0 0 0 0 - - 0.2
22/11:00pm 23.3 27.7 21.4 89 1.3 CALM 0 0 0 0 - - 0.2
22/10:30pm 23.0 27.7 22.0 94 0.7 CALM 0 0 0 0 - - 0.2
22/10:00pm 22.6 27.3 21.9 96 0.5 CALM 0 0 0 0 - - 0.2
22/09:30pm 22.7 27.5 22.2 97 0.3 CALM 0 0 0 0 - - 0.2
22/09:00pm 22.3 27.2 22.3 100 0.0 CALM 0 0 0 0 - - 0.2
22/08:30pm 21.6 25.7 21.6 100 0.0 NE 2 6 1 3 - - 0.2
22/08:00pm 21.8 25.1 21.8 100 0.0 NE 7 11 4 6 - - 0.2

Latest Capital City Observations: Canberra | Sydney | Melbourne | Brisbane | Adelaide | Perth | Hobart | Darwin

Other formats

Comma delimited format used in spreadsheet applications
http://www.bom.gov.au/fwo/IDN60901/IDN60901.94774.axf

JavaScript Object Notation format (JSON) in row-major order
http://www.bom.gov.au/fwo/IDN60901/IDN60901.94774.json

Data quality

Most of these data are generated automatically and are frequently updated. Quality checks on data are not normally performed. It is possible for incorrect values to appear. Refer to information at About Latest Weather Observations and please check the disclaimer before using these data.